Horseshoe Lake, Arkansas
Current Conditions -  °F | °C
As of 2:53 PM on Saturday 22 Nov 2014 (Local Time) from KAWM Reporting Station
Overcast Overcast  
Wind Chill: 64°   Ceiling: 4800
Heat Index: 64°   Visibility: 10mi
Dew Point: 45°   Wind: 15mph
Humidity: 50%   Direction: 150°SSE
Pressure: 30.06"   Gusts: NA
Location:  34.9503°N, 90.5078°W
Report Text: KAWM 222053Z AUTO 15013KT 10SM OVC048 18/07 A3006 RMK AO2 SLP178 T01780072 56031
Loading
Personal Weather Stations






























Interactive Weather Map New forecast layout! Learn more

10-Day Weather Forecast

Advertisements
Track Severe Weather on mobile